createdAt,value
2023-05-11T00:02:15.313Z,5.03
2023-05-11T00:04:42.415Z,4.68
2023-05-11T00:07:09.434Z,4.85
2023-05-11T00:09:38.651Z,4.47
2023-05-11T00:12:06.082Z,5.10
2023-05-11T00:14:35.327Z,4.53
2023-05-11T00:17:05.688Z,4.43
2023-05-11T00:19:32.553Z,4.47
2023-05-11T00:22:00.161Z,4.57
2023-05-11T00:24:27.135Z,4.72
2023-05-11T00:26:56.516Z,4.95
2023-05-11T00:29:23.370Z,4.20
2023-05-11T00:31:50.479Z,4.20
2023-05-11T00:34:18.155Z,4.97
2023-05-11T00:36:45.647Z,4.45
2023-05-11T00:39:12.807Z,4.85
2023-05-11T00:41:40.806Z,4.20
2023-05-11T00:44:07.775Z,4.43
2023-05-11T00:46:35.412Z,4.40
2023-05-11T00:49:02.615Z,4.57
2023-05-11T00:51:30.666Z,4.03
2023-05-11T00:53:59.160Z,4.90
2023-05-11T00:56:26.310Z,4.50
2023-05-11T00:58:53.234Z,4.70
2023-05-11T01:01:20.129Z,4.47
2023-05-11T01:03:48.004Z,5.18
2023-05-11T01:06:32.071Z,4.75
2023-05-11T01:09:31.605Z,4.68
2023-05-11T01:12:37.884Z,5.03
2023-05-11T01:15:14.025Z,5.13
2023-05-11T01:17:56.620Z,5.50
2023-05-11T01:20:29.364Z,4.53
2023-05-11T01:23:11.133Z,5.13
2023-05-11T01:25:59.743Z,4.22
2023-05-11T01:28:40.748Z,5.40
2023-05-11T01:31:11.242Z,4.47
2023-05-11T01:33:44.410Z,4.68
2023-05-11T01:36:12.856Z,5.25
2023-05-11T01:38:42.407Z,4.72
2023-05-11T01:41:21.916Z,4.78
2023-05-11T01:43:54.874Z,4.55
2023-05-11T01:46:32.467Z,5.20
2023-05-11T01:49:01.797Z,5.50
2023-05-11T01:51:34.448Z,4.85
2023-05-11T01:54:02.885Z,5.25
2023-05-11T01:56:34.005Z,4.55
2023-05-11T01:59:01.737Z,5.30
2023-05-11T02:01:29.523Z,4.95
2023-05-11T02:03:56.748Z,4.82
2023-05-11T02:06:25.476Z,5.60
2023-05-11T02:08:53.465Z,5.07
2023-05-11T02:11:24.530Z,4.78
2023-05-11T02:13:53.409Z,4.97
2023-05-11T02:16:21.062Z,4.70
2023-05-11T02:18:49.247Z,5.03
2023-05-11T02:21:17.385Z,4.63
2023-05-11T02:23:47.343Z,5.50
2023-05-11T02:26:16.888Z,5.40
2023-05-11T02:28:44.281Z,4.80
2023-05-11T02:31:18.016Z,5.20
2023-05-11T02:33:51.547Z,4.88
2023-05-11T02:36:22.502Z,6.47
2023-05-11T02:38:54.069Z,6.03
2023-05-11T02:41:28.231Z,5.03
2023-05-11T02:43:57.072Z,5.40
2023-05-11T02:46:28.479Z,5.38
2023-05-11T02:48:57.992Z,5.15
2023-05-11T02:51:33.383Z,5.18
2023-05-11T02:54:01.860Z,4.47
2023-05-11T02:56:30.049Z,5.10
2023-05-11T02:58:56.900Z,5.55
2023-05-11T03:01:24.798Z,4.47
2023-05-11T03:03:52.543Z,5.00
2023-05-11T03:06:19.517Z,5.38
2023-05-11T03:08:51.137Z,4.93
2023-05-11T03:11:19.859Z,5.10
2023-05-11T03:13:47.248Z,6.28
2023-05-11T03:16:14.884Z,4.65
2023-05-11T03:18:42.728Z,5.68
2023-05-11T03:21:10.027Z,5.32
2023-05-11T03:23:38.192Z,4.13
2023-05-11T03:26:07.331Z,4.70
2023-05-11T03:28:36.265Z,4.70
2023-05-11T03:31:03.505Z,5.13
2023-05-11T03:33:30.686Z,4.53
2023-05-11T03:35:59.567Z,4.65
2023-05-11T03:38:29.356Z,5.03
2023-05-11T03:40:57.981Z,5.15
2023-05-11T03:43:28.982Z,4.68
2023-05-11T03:45:57.603Z,4.78
2023-05-11T03:48:24.749Z,4.70
2023-05-11T03:50:52.185Z,4.88
2023-05-11T03:53:20.142Z,4.35
2023-05-11T03:55:47.190Z,4.75
2023-05-11T03:58:14.580Z,4.90
2023-05-11T04:00:42.530Z,4.70
2023-05-11T04:03:10.013Z,4.93
2023-05-11T04:05:37.049Z,4.55
2023-05-11T04:08:05.584Z,3.90
2023-05-11T04:10:47.161Z,4.67
2023-05-11T04:13:14.122Z,5.20
2023-05-11T04:15:41.063Z,3.97
2023-05-11T04:18:08.686Z,3.88
2023-05-11T04:20:35.595Z,3.95
2023-05-11T04:23:02.623Z,3.88
2023-05-11T04:25:31.721Z,4.40
2023-05-11T04:27:58.679Z,3.60
2023-05-11T04:30:25.605Z,4.43
2023-05-11T04:32:52.475Z,4.35
2023-05-11T04:35:19.427Z,4.25
2023-05-11T04:37:46.312Z,3.75
2023-05-11T04:40:13.465Z,3.78
2023-05-11T04:42:40.390Z,3.65
2023-05-11T04:45:10.676Z,3.83
2023-05-11T04:47:38.066Z,3.40
2023-05-11T04:50:05.795Z,3.60
2023-05-11T04:52:32.707Z,3.30
2023-05-11T04:54:59.682Z,2.95
2023-05-11T04:57:26.358Z,3.53
2023-05-11T04:59:53.417Z,3.10
2023-05-11T05:02:20.611Z,3.78
2023-05-11T05:04:47.615Z,3.38
2023-05-11T05:07:14.840Z,3.30
2023-05-11T05:09:43.762Z,3.53
2023-05-11T05:12:11.912Z,3.50
2023-05-11T05:14:38.912Z,4.10
2023-05-11T05:17:06.497Z,3.17
2023-05-11T05:19:33.594Z,3.38
2023-05-11T05:22:00.574Z,3.38
2023-05-11T05:24:27.696Z,3.28
2023-05-11T05:26:54.446Z,3.67
2023-05-11T05:29:21.779Z,3.70
2023-05-11T05:31:48.636Z,3.10
2023-05-11T05:34:16.586Z,3.00
2023-05-11T05:36:44.265Z,3.42
2023-05-11T05:39:12.780Z,3.28
2023-05-11T05:41:39.864Z,3.78
2023-05-11T05:44:06.661Z,3.40
2023-05-11T05:46:33.796Z,3.10
2023-05-11T05:49:01.031Z,3.40
2023-05-11T05:51:28.007Z,2.92
2023-05-11T05:53:55.876Z,3.20
2023-05-11T05:56:35.658Z,4.00
2023-05-11T05:59:05.700Z,3.28
2023-05-11T06:01:36.277Z,3.17
2023-05-11T06:04:04.724Z,3.45
2023-05-11T06:06:31.972Z,2.78
2023-05-11T06:08:59.105Z,3.90
2023-05-11T06:11:31.436Z,3.15
2023-05-11T06:14:04.938Z,3.15
2023-05-11T06:16:31.787Z,3.20
2023-05-11T06:18:58.764Z,3.38
2023-05-11T06:21:25.765Z,2.83
2023-05-11T06:23:52.982Z,3.03
2023-05-11T06:26:20.212Z,3.65
2023-05-11T06:28:47.219Z,2.90
2023-05-11T06:31:14.316Z,2.85
2023-05-11T06:33:41.354Z,3.53
2023-05-11T06:36:08.612Z,3.00
2023-05-11T06:38:35.574Z,3.72
2023-05-11T06:41:02.393Z,3.05
2023-05-11T06:43:29.741Z,3.70
2023-05-11T06:45:56.531Z,3.00
2023-05-11T06:48:26.326Z,3.05
2023-05-11T06:50:53.416Z,2.88
2023-05-11T06:53:20.671Z,2.78
2023-05-11T06:55:48.093Z,3.42
2023-05-11T06:58:15.206Z,3.08
2023-05-11T07:00:42.226Z,3.75
2023-05-11T07:03:09.038Z,2.72
2023-05-11T07:05:36.504Z,3.63
2023-05-11T07:08:05.258Z,3.08
2023-05-11T07:10:32.864Z,3.00
2023-05-11T07:12:59.789Z,2.83
2023-05-11T07:15:26.832Z,2.47
2023-05-11T07:17:53.831Z,3.10
2023-05-11T07:20:21.031Z,2.88
2023-05-11T07:22:48.261Z,3.17
2023-05-11T07:25:15.236Z,3.22
2023-05-11T07:27:42.377Z,2.70
2023-05-11T07:30:09.602Z,3.08
2023-05-11T07:32:36.531Z,2.75
2023-05-11T07:35:03.331Z,3.45
2023-05-11T07:37:30.388Z,3.13
2023-05-11T07:39:57.411Z,3.45
2023-05-11T07:42:24.504Z,2.72
2023-05-11T07:44:51.983Z,2.75
2023-05-11T07:47:21.010Z,3.30
2023-05-11T07:49:48.185Z,2.67
2023-05-11T07:52:20.744Z,3.42
2023-05-11T07:54:47.775Z,2.90
2023-05-11T07:57:14.591Z,3.13
2023-05-11T07:59:41.578Z,2.58
2023-05-11T08:02:12.250Z,3.05
2023-05-11T08:04:51.222Z,3.60
2023-05-11T08:07:18.108Z,2.83
2023-05-11T08:09:47.188Z,2.80
2023-05-11T08:12:14.887Z,2.30
2023-05-11T08:14:43.398Z,2.67
2023-05-11T08:17:11.159Z,3.92
2023-05-11T08:19:38.407Z,3.60
2023-05-11T08:22:19.159Z,2.75
2023-05-11T08:24:46.228Z,2.85
2023-05-11T08:27:13.576Z,2.70
2023-05-11T08:29:40.896Z,2.78
2023-05-11T08:32:10.768Z,2.83
2023-05-11T08:34:42.633Z,2.70
2023-05-11T08:37:09.469Z,3.33
2023-05-11T08:39:46.084Z,2.90
2023-05-11T08:42:16.964Z,2.75
2023-05-11T08:44:44.783Z,2.83
2023-05-11T08:47:22.028Z,2.42
2023-05-11T08:49:52.638Z,2.63
2023-05-11T08:52:20.622Z,2.50
2023-05-11T08:54:48.382Z,3.17
2023-05-11T08:57:15.484Z,2.58
2023-05-11T08:59:46.287Z,3.03
2023-05-11T09:02:21.056Z,3.22
2023-05-11T09:07:20.190Z,2.85
2023-05-11T09:09:47.942Z,3.03
2023-05-11T09:12:16.917Z,3.33
2023-05-11T09:14:48.321Z,3.00
2023-05-11T09:17:15.476Z,3.50
2023-05-11T09:20:01.198Z,3.40
2023-05-11T09:22:30.581Z,3.22
2023-05-11T09:25:00.278Z,3.25
2023-05-11T09:27:27.460Z,3.13
2023-05-11T09:29:54.913Z,2.72
2023-05-11T09:32:21.887Z,3.95
2023-05-11T09:34:49.522Z,3.10
2023-05-11T09:37:18.569Z,3.65
2023-05-11T09:40:17.676Z,3.28
2023-05-11T09:42:32.379Z,2.80
2023-05-11T09:44:59.304Z,2.92
2023-05-11T09:47:27.788Z,2.65
2023-05-11T09:49:54.770Z,3.70
2023-05-11T09:52:25.737Z,2.83
2023-05-11T09:54:52.955Z,2.83
2023-05-11T09:57:30.780Z,3.20
2023-05-11T10:00:00.199Z,2.47
2023-05-11T10:02:31.319Z,2.42
2023-05-11T10:05:00.508Z,2.90
2023-05-11T10:07:29.013Z,2.50
2023-05-11T10:09:58.032Z,2.58
2023-05-11T10:12:26.607Z,3.13
2023-05-11T10:15:02.082Z,2.90
2023-05-11T10:17:30.933Z,2.80
2023-05-11T10:19:58.993Z,3.35
2023-05-11T10:22:27.564Z,2.55
2023-05-11T10:24:56.866Z,3.33
2023-05-11T10:27:24.233Z,2.92
2023-05-11T10:29:51.731Z,2.80
2023-05-11T10:32:21.310Z,2.80
2023-05-11T10:34:50.623Z,2.80
2023-05-11T10:37:18.269Z,3.30
2023-05-11T10:39:50.083Z,2.72
2023-05-11T10:42:36.441Z,2.70
2023-05-11T10:45:26.567Z,3.25
2023-05-11T10:48:15.040Z,3.97
2023-05-11T10:50:57.771Z,3.38
2023-05-11T10:53:46.599Z,2.72
2023-05-11T10:56:22.770Z,3.45
2023-05-11T10:59:11.043Z,2.60
2023-05-11T11:01:42.083Z,3.00
2023-05-11T11:04:13.569Z,3.85
2023-05-11T11:06:42.962Z,3.42
2023-05-11T11:09:17.415Z,2.50
2023-05-11T11:11:51.304Z,2.67
2023-05-11T11:14:19.509Z,2.63
2023-05-11T11:17:14.592Z,2.88
2023-05-11T11:19:41.725Z,2.38
2023-05-11T11:22:41.695Z,2.40
2023-05-11T11:25:10.083Z,3.38
2023-05-11T11:27:40.247Z,2.47
2023-05-11T11:30:23.108Z,3.22
2023-05-11T11:32:54.934Z,2.60
2023-05-11T11:35:40.259Z,2.97
2023-05-11T11:38:12.474Z,2.85
2023-05-11T11:40:51.397Z,2.80
2023-05-11T11:43:25.023Z,2.72
2023-05-11T11:46:03.180Z,2.55
2023-05-11T11:48:37.947Z,2.83
2023-05-11T11:51:13.963Z,2.60
2023-05-11T11:53:45.185Z,4.18
2023-05-11T11:56:15.557Z,2.45
2023-05-11T11:58:48.649Z,2.50
2023-05-11T12:01:17.350Z,2.63
2023-05-11T12:03:47.138Z,2.90
2023-05-11T12:06:14.549Z,2.55
2023-05-11T12:08:43.145Z,2.50
2023-05-11T12:11:10.064Z,2.50
2023-05-11T12:13:40.067Z,2.40
2023-05-11T12:16:18.966Z,2.67
2023-05-11T12:19:00.118Z,2.67
2023-05-11T12:21:31.919Z,2.75
2023-05-11T12:24:03.801Z,2.50
2023-05-11T12:26:33.434Z,2.60
2023-05-11T12:29:16.076Z,2.53
2023-05-11T12:31:44.654Z,2.45
2023-05-11T12:34:23.062Z,2.35
2023-05-11T12:36:51.681Z,2.42
2023-05-11T12:39:25.402Z,2.58
2023-05-11T12:41:55.062Z,2.72
2023-05-11T12:44:24.305Z,3.08
2023-05-11T12:46:52.336Z,2.78
2023-05-11T12:49:26.183Z,2.30
2023-05-11T12:52:00.235Z,2.58
2023-05-11T12:54:35.156Z,2.38
2023-05-11T12:57:05.658Z,2.72
2023-05-11T12:59:38.315Z,3.03
2023-05-11T13:02:18.211Z,2.45
2023-05-11T13:04:46.638Z,2.85
2023-05-11T13:07:23.680Z,2.58
2023-05-11T13:10:06.004Z,2.40
2023-05-11T13:12:34.447Z,2.30
2023-05-11T13:15:21.089Z,2.20
2023-05-11T13:17:48.899Z,2.38
2023-05-11T13:20:24.152Z,2.33
2023-05-11T13:22:51.556Z,2.08
2023-05-11T13:25:21.320Z,2.47
2023-05-11T13:27:48.629Z,2.42
2023-05-11T13:30:16.773Z,2.30
2023-05-11T13:32:44.283Z,2.15
2023-05-11T13:35:11.166Z,2.92
2023-05-11T13:37:51.170Z,2.35
2023-05-11T13:40:20.658Z,2.25
2023-05-11T13:42:50.769Z,2.47
2023-05-11T13:45:18.584Z,2.60
2023-05-11T13:47:46.754Z,2.42
2023-05-11T13:50:16.669Z,2.20
2023-05-11T13:52:44.095Z,2.42
2023-05-11T13:55:11.154Z,3.13
2023-05-11T13:57:38.166Z,3.08
2023-05-11T14:00:07.211Z,2.80
2023-05-11T14:02:34.303Z,2.40
2023-05-11T14:05:01.140Z,2.58
2023-05-11T14:07:46.255Z,2.60
2023-05-11T14:10:20.618Z,3.10
2023-05-11T14:12:47.520Z,2.72
2023-05-11T14:15:14.604Z,1.92
2023-05-11T14:17:45.124Z,2.28
2023-05-11T14:20:13.012Z,2.10
2023-05-11T14:22:41.305Z,2.15
2023-05-11T14:25:08.720Z,2.35
2023-05-11T14:27:36.544Z,2.30
2023-05-11T14:30:07.140Z,2.40
2023-05-11T14:32:34.089Z,1.70
2023-05-11T14:35:01.245Z,2.20
2023-05-11T14:37:27.912Z,2.38
2023-05-11T14:39:54.851Z,2.80
2023-05-11T14:42:22.023Z,2.20
2023-05-11T14:44:48.933Z,2.42
2023-05-11T14:47:15.923Z,2.17
2023-05-11T14:49:42.916Z,2.47
2023-05-11T14:52:10.848Z,2.45
2023-05-11T14:54:37.783Z,2.08
2023-05-11T14:57:05.628Z,2.17
2023-05-11T14:59:32.865Z,2.60
2023-05-11T15:02:00.584Z,2.75
2023-05-11T15:04:27.396Z,2.15
2023-05-11T15:07:05.558Z,2.85
2023-05-11T15:09:32.545Z,2.50
2023-05-11T15:12:04.796Z,3.25
2023-05-11T15:14:35.953Z,2.30
2023-05-11T15:17:02.849Z,2.63
2023-05-11T15:19:31.259Z,2.58
2023-05-11T15:21:58.186Z,2.50
2023-05-11T15:24:25.041Z,2.13
2023-05-11T15:26:52.045Z,2.50
2023-05-11T15:29:20.273Z,2.15
2023-05-11T15:31:47.088Z,2.38
2023-05-11T15:34:14.078Z,2.20
2023-05-11T15:36:41.211Z,2.45
2023-05-11T15:39:08.692Z,2.38
2023-05-11T15:41:35.656Z,2.30
2023-05-11T15:44:02.772Z,2.50
2023-05-11T15:46:29.597Z,2.30
2023-05-11T15:48:59.089Z,2.33
2023-05-11T15:51:28.687Z,2.53
2023-05-11T15:53:55.600Z,2.40
2023-05-11T15:56:24.745Z,2.38
2023-05-11T15:58:51.471Z,2.60
2023-05-11T16:01:18.795Z,2.22
2023-05-11T16:03:45.750Z,2.65
2023-05-11T16:06:13.012Z,2.20
2023-05-11T16:08:40.129Z,2.83
2023-05-11T16:11:06.984Z,2.27
2023-05-11T16:13:33.817Z,2.50
2023-05-11T16:16:01.141Z,2.40
2023-05-11T16:18:28.812Z,2.47
2023-05-11T16:20:56.622Z,2.58
2023-05-11T16:23:25.599Z,2.30
2023-05-11T16:25:52.686Z,2.80
2023-05-11T16:28:20.010Z,2.50
2023-05-11T16:30:47.251Z,2.33
2023-05-11T16:33:14.206Z,2.60
2023-05-11T16:35:43.198Z,3.28
2023-05-11T16:38:17.405Z,2.80
2023-05-11T16:40:44.597Z,3.10
2023-05-11T16:43:11.438Z,2.92
2023-05-11T16:45:38.399Z,2.75
2023-05-11T16:48:06.047Z,2.58
2023-05-11T16:50:32.933Z,2.67
2023-05-11T16:52:59.981Z,2.60
2023-05-11T16:55:27.044Z,2.67
2023-05-11T16:57:53.941Z,2.70
2023-05-11T17:00:21.684Z,2.55
2023-05-11T17:02:49.003Z,2.60
2023-05-11T17:05:19.123Z,2.50
2023-05-11T17:07:47.014Z,2.58
2023-05-11T17:10:14.041Z,2.70
2023-05-11T17:12:41.317Z,2.60
2023-05-11T17:15:12.667Z,3.13
2023-05-11T17:17:40.035Z,3.00
2023-05-11T17:20:07.999Z,3.15
2023-05-11T17:22:35.213Z,2.42
2023-05-11T17:25:05.946Z,2.58
2023-05-11T17:27:33.158Z,3.53
2023-05-11T17:30:00.050Z,2.42
2023-05-11T17:32:27.385Z,2.25
2023-05-11T17:34:56.532Z,2.47
2023-05-11T17:37:31.299Z,2.70
2023-05-11T17:40:00.521Z,2.67
2023-05-11T17:42:28.487Z,2.95
2023-05-11T17:44:56.190Z,2.60
2023-05-11T17:47:23.212Z,2.95
2023-05-11T17:49:50.687Z,2.75
2023-05-11T17:52:17.711Z,2.40
2023-05-11T17:54:46.508Z,2.42
2023-05-11T17:57:14.025Z,2.70
2023-05-11T17:59:41.187Z,2.80
2023-05-11T18:02:11.011Z,2.45
2023-05-11T18:04:37.817Z,2.70
2023-05-11T18:07:05.270Z,2.88
2023-05-11T18:09:34.475Z,2.80
2023-05-11T18:12:01.523Z,2.55
2023-05-11T18:14:28.496Z,2.60
2023-05-11T18:16:57.800Z,2.83
2023-05-11T18:19:24.859Z,2.50
2023-05-11T18:21:59.182Z,2.95
2023-05-11T18:24:27.033Z,2.70
2023-05-11T18:26:54.013Z,2.70
2023-05-11T18:29:22.206Z,2.80
2023-05-11T18:31:49.827Z,2.33
2023-05-11T18:34:16.907Z,2.70
2023-05-11T18:36:44.011Z,2.60
2023-05-11T18:39:11.212Z,2.92
2023-05-11T18:41:38.154Z,2.38
2023-05-11T18:44:05.140Z,2.70
2023-05-11T18:46:32.066Z,2.75
2023-05-11T18:48:59.097Z,2.92
2023-05-11T18:51:26.480Z,2.50
2023-05-11T18:53:53.399Z,2.88
2023-05-11T18:56:20.516Z,2.70
2023-05-11T18:58:48.227Z,2.38
2023-05-11T19:01:16.027Z,3.20
2023-05-11T19:03:42.961Z,2.40
2023-05-11T19:06:10.032Z,2.83
2023-05-11T19:08:36.998Z,2.80
2023-05-11T19:11:06.967Z,2.53
2023-05-11T19:13:34.582Z,2.80
2023-05-11T19:16:03.401Z,2.67
2023-05-11T19:18:30.982Z,3.08
2023-05-11T19:20:57.880Z,3.00
2023-05-11T19:23:24.840Z,2.45
2023-05-11T19:25:52.017Z,2.60
2023-05-11T19:28:18.958Z,2.72
2023-05-11T19:30:45.921Z,2.65
2023-05-11T19:33:12.908Z,2.85
2023-05-11T19:35:40.564Z,3.15
2023-05-11T19:38:07.583Z,2.75
2023-05-11T19:40:45.783Z,2.72
2023-05-11T19:43:13.607Z,2.97
2023-05-11T19:45:43.615Z,2.72
2023-05-11T19:48:10.957Z,2.80
2023-05-11T19:50:37.928Z,4.93
2023-05-11T19:53:04.915Z,2.97
2023-05-11T19:55:32.088Z,3.10
2023-05-11T19:57:59.114Z,2.88
2023-05-11T20:00:26.372Z,2.63
2023-05-11T20:02:53.968Z,2.95
2023-05-11T20:05:21.260Z,2.63
2023-05-11T20:07:48.238Z,2.45
2023-05-11T20:10:15.234Z,2.80
2023-05-11T20:12:42.361Z,4.18
2023-05-11T20:15:10.009Z,2.88
2023-05-11T20:17:37.114Z,2.53
2023-05-11T20:20:04.469Z,3.08
2023-05-11T20:22:32.394Z,2.70
2023-05-11T20:24:59.253Z,2.92
2023-05-11T20:27:26.160Z,2.80
2023-05-11T20:29:53.146Z,3.08
2023-05-11T20:32:20.230Z,2.50
2023-05-11T20:34:47.429Z,2.65
2023-05-11T20:37:14.576Z,2.65
2023-05-11T20:39:41.433Z,2.80
2023-05-11T20:42:08.961Z,2.70
2023-05-11T20:44:36.039Z,2.78
2023-05-11T20:47:03.573Z,3.15
2023-05-11T20:49:38.722Z,2.92
2023-05-11T20:52:06.985Z,2.65
2023-05-11T20:54:35.160Z,2.97
2023-05-11T20:57:03.362Z,2.85
2023-05-11T21:02:01.653Z,2.88
2023-05-11T21:04:30.026Z,2.70
2023-05-11T21:06:57.352Z,2.58
2023-05-11T21:09:25.576Z,2.88
2023-05-11T21:11:52.655Z,2.60
2023-05-11T21:14:20.486Z,2.92
2023-05-11T21:16:48.132Z,3.00
2023-05-11T21:19:16.853Z,3.08
2023-05-11T21:21:44.039Z,2.65
2023-05-11T21:24:10.968Z,2.90
2023-05-11T21:26:37.888Z,2.95
2023-05-11T21:29:04.936Z,2.60
2023-05-11T21:31:31.979Z,3.05
2023-05-11T21:33:59.039Z,3.00
2023-05-11T21:36:26.065Z,2.85
2023-05-11T21:38:53.016Z,2.90
2023-05-11T21:41:20.160Z,3.35
2023-05-11T21:43:47.107Z,2.60
2023-05-11T21:46:14.450Z,2.85
2023-05-11T21:48:41.323Z,2.88
2023-05-11T21:51:09.293Z,2.75
2023-05-11T21:53:36.302Z,2.60
2023-05-11T21:56:03.247Z,2.70
2023-05-11T21:58:30.051Z,2.90
2023-05-11T22:00:57.996Z,2.78
2023-05-11T22:03:25.670Z,2.88
2023-05-11T22:05:53.346Z,2.90
2023-05-11T22:08:20.594Z,2.88
2023-05-11T22:10:47.623Z,3.03
2023-05-11T22:13:14.668Z,2.90
2023-05-11T22:15:41.984Z,2.78
2023-05-11T22:18:09.673Z,2.80
2023-05-11T22:20:36.576Z,2.88
2023-05-11T22:23:03.703Z,3.15
2023-05-11T22:25:30.588Z,3.28
2023-05-11T22:27:57.514Z,2.53
2023-05-11T22:30:24.471Z,3.00
2023-05-11T22:32:51.647Z,3.00
2023-05-11T22:35:18.617Z,3.30
2023-05-11T22:37:45.706Z,2.80
2023-05-11T22:40:12.938Z,3.20
2023-05-11T22:42:40.061Z,3.30
2023-05-11T22:45:07.629Z,2.80
2023-05-11T22:47:34.797Z,3.33
2023-05-11T22:50:01.835Z,2.92
2023-05-11T22:52:28.844Z,2.83
2023-05-11T22:54:58.110Z,2.85
2023-05-11T22:57:28.064Z,3.03
2023-05-11T22:59:55.079Z,2.90
2023-05-11T23:02:23.333Z,3.35
2023-05-11T23:04:53.650Z,3.30
2023-05-11T23:07:21.071Z,3.10
2023-05-11T23:09:49.916Z,3.90
2023-05-11T23:12:16.770Z,3.38
2023-05-11T23:14:43.987Z,3.28
2023-05-11T23:17:11.392Z,2.88
2023-05-11T23:19:38.475Z,3.20
2023-05-11T23:22:05.626Z,2.88
2023-05-11T23:24:32.649Z,2.60
2023-05-11T23:26:59.652Z,2.83
2023-05-11T23:29:27.304Z,2.97
2023-05-11T23:31:54.245Z,3.20
2023-05-11T23:34:21.185Z,3.75
2023-05-11T23:36:48.324Z,2.83
2023-05-11T23:39:15.463Z,2.88
2023-05-11T23:41:42.669Z,3.20
2023-05-11T23:44:10.093Z,3.03
2023-05-11T23:46:37.138Z,3.20
2023-05-11T23:49:04.622Z,3.08
2023-05-11T23:51:31.525Z,3.35
2023-05-11T23:53:58.532Z,2.72
2023-05-11T23:56:25.734Z,3.28
2023-05-11T23:58:52.737Z,3.10
